Westford, MA (01886)

11:15 PM EST on February 27, 2017 (GMT -0500)
Boston Road | | Change Station

Elev 344 ft 42.57 °N, 71.44 °W | Updated 1 second ago

Clear
Clear
39.9 °F
Feels Like 40 °F
N
0.0
Wind Variable Wind from North
Gusts 0.0 mph

Today
High -- | Low -- °F
--% Chance of Precip.
Yesterday
High -- | Low -- °F
Precip. -- in
Pressure 30.39 in
Visibility 10.0 miles
Clouds Clear
Windchill 40 °F
Dew Point 25 °F
Humidity 54%
Rainfall 0.00 in
Snow Depth Not available.
6:24 AM 5:33 PM
Waxing Crescent, 3% visible
METAR KBED 280356Z AUTO 21006KT 10SM CLR 03/M04 A3034 RMK AO2 SLP290 T00281044
Pressure 30.39 in
Visibility 10.0 miles
Clouds Clear
Windchill 40 °F
Dew Point 25 °F
Humidity 54%
Rainfall 0.00 in
Snow Depth Not available.
6:24 AM 5:33 PM
Waxing Crescent, 3% visible
METAR KBED 280356Z AUTO 21006KT 10SM CLR 03/M04 A3034 RMK AO2 SLP290 T00281044

Get Your Daily Forecast Email!

Thanks for signing up!

Be on the lookout for a verification email in your inbox.

You'll start receiving the daily forecast at 8 AM.

×

10-Day Weather Forecast

Almanac

Astronomy

Feb. 27, 2017 Rise Set
Actual Time
Civil Twilight
Nautical Twilight
Astronomical Twilight
Moon
Length of Visible Light
Length of Day
Tomorrow will be .
, % of the Moon is Illuminated

Today's Extremes

State Highs State Lows

Community

WunderPhotos

Upload Photos

1,962,540 photos uploaded!

WunderBlog® & News

Nearby

Air Quality

  Air Quality AQ Index Pollutant
Not available.

Snow Depth

Station Depth Elevation

Earthquake Activity

City Distance Mag. Time & Date
Minimum magnitude displayed is 2.5.

Coastal Water Temperatures

Place Temperature

Stations

Nearby Weather Stations

Station Location Temp. Windchill Dew Point Humidity Wind Precip. Elev Updated Type
                   

Watches & Warnings

There are currently no watches in effect.